地図

経路データ

SID SEASON NUMBER BASIN SUBBASIN NAME ISO_TIME NATURE LAT LON WMO_WIND WMO_PRES WMO_AGENCY TRACK_TYPE DIST2LAND LANDFALL IFLAG USA_AGENCY USA_ATCF_ID USA_LAT USA_LON USA_RECORD USA_STATUS USA_WIND USA_PRES USA_SSHS USA_R34_NE USA_R34_SE USA_R34_SW USA_R34_NW USA_R50_NE USA_R50_SE USA_R50_SW USA_R50_NW USA_R64_NE USA_R64_SE USA_R64_SW USA_R64_NW USA_POCI USA_ROCI USA_RMW USA_EYE TOKYO_LAT TOKYO_LON TOKYO_GRADE TOKYO_WIND TOKYO_PRES TOKYO_R50_DIR TOKYO_R50_LONG TOKYO_R50_SHORT TOKYO_R30_DIR TOKYO_R30_LONG TOKYO_R30_SHORT TOKYO_LAND CMA_LAT CMA_LON CMA_CAT CMA_WIND CMA_PRES HKO_LAT HKO_LON HKO_CAT HKO_WIND HKO_PRES NEWDELHI_LAT NEWDELHI_LON NEWDELHI_GRADE NEWDELHI_WIND NEWDELHI_PRES NEWDELHI_CI NEWDELHI_DP NEWDELHI_POCI REUNION_LAT REUNION_LON REUNION_TYPE REUNION_WIND REUNION_PRES REUNION_TNUM REUNION_CI REUNION_RMW REUNION_R34_NE REUNION_R34_SE REUNION_R34_SW REUNION_R34_NW REUNION_R50_NE REUNION_R50_SE REUNION_R50_SW REUNION_R50_NW REUNION_R64_NE REUNION_R64_SE REUNION_R64_SW REUNION_R64_NW BOM_LAT BOM_LON BOM_TYPE BOM_WIND BOM_PRES BOM_TNUM BOM_CI BOM_RMW BOM_R34_NE BOM_R34_SE BOM_R34_SW BOM_R34_NW BOM_R50_NE BOM_R50_SE BOM_R50_SW BOM_R50_NW BOM_R64_NE BOM_R64_SE BOM_R64_SW BOM_R64_NW BOM_ROCI BOM_POCI BOM_EYE BOM_POS_METHOD BOM_PRES_METHOD NADI_LAT NADI_LON NADI_CAT NADI_WIND NADI_PRES WELLINGTON_LAT WELLINGTON_LON WELLINGTON_WIND WELLINGTON_PRES DS824_LAT DS824_LON DS824_STAGE DS824_WIND DS824_PRES TD9636_LAT TD9636_LON TD9636_STAGE TD9636_WIND TD9636_PRES TD9635_LAT TD9635_LON TD9635_WIND TD9635_PRES TD9635_ROCI NEUMANN_LAT NEUMANN_LON NEUMANN_CLASS NEUMANN_WIND NEUMANN_PRES MLC_LAT MLC_LON MLC_CLASS MLC_WIND MLC_PRES USA_GUST BOM_GUST BOM_GUST_PER REUNION_GUST REUNION_GUST_PER USA_SEAHGT USA_SEARAD_NE USA_SEARAD_SE USA_SEARAD_SW USA_SEARAD_NW STORM_SPEED STORM_DIR
1953035S08056 1953 9 SI MM NOT_NAMED 1953-02-04 06:00:00 TS -8.40000 55.9000 main 829 797 O________OO___ jtwc_sh SH111953 -8.40000 55.9000 -1 -8.40000 55.9000 TC 25 -8.40000 55.9000 7 10 199
1953035S08056 1953 9 SI MM NOT_NAMED 1953-02-04 09:00:00 TS -8.84899 55.7477 main 787 747 P________PP___ SH111953 -8.85001 55.7525 -1 -8.85001 55.7525 TC 25 -8.84694 55.7379 7 10 199
1953035S08056 1953 9 SI MM NOT_NAMED 1953-02-04 12:00:00 TS -9.29836 55.5935 main 747 704 O________OP___ jtwc_sh SH111953 -9.30000 55.6000 -1 -9.30000 55.6000 TC 25 -9.29509 55.5804 7 10 199
1953035S08056 1953 9 SI MM NOT_NAMED 1953-02-04 15:00:00 TS -9.74856 55.4392 main 704 666 P________PP___ SH111953 -9.75000 55.4425 -1 -9.75000 55.4425 TC 30 -9.74568 55.4327 7 10 198
1953035S08056 1953 9 SI MM NOT_NAMED 1953-02-04 18:00:00 TS -10.2000 55.3000 main 666 636 O________OO___ jtwc_sh SH111953 -10.2000 55.3000 -1 -10.2000 55.3000 TC 35 -10.2000 55.3000 2 9 195
1953035S08056 1953 9 SI MM NOT_NAMED 1953-02-04 21:00:00 TS -10.6482 55.1901 main 636 604 P________PP___ SH111953 -10.6425 55.1924 -1 -10.6425 55.1924 TC 35 -10.6597 55.1854 2 9 193
1953035S08056 1953 9 SI MM NOT_NAMED 1953-02-05 00:00:00 TS -11.1092 55.0949 main 604 576 O________OP___ jtwc_sh SH111953 -11.1000 55.1000 -1 -11.1000 55.1000 TC 35 -11.1275 55.0847 2 10 191
1953035S08056 1953 9 SI MM NOT_NAMED 1953-02-05 03:00:00 TS -11.5972 54.9972 main 576 558 P________PP___ SH111953 -11.5925 55.0000 -1 -11.5925 55.0000 TC 35 -11.6066 54.9917 2 12 184
1953035S08056 1953 9 SI MM NOT_NAMED 1953-02-05 06:00:00 TS -12.2615 55.0077 reunion main 556 542 O____O___OO___ jtwc_sh SH111953 -12.1000 54.9000 -1 -14.2000 56.3000 99 9.90000 -12.1000 54.9000 TC 35 -12.1000 54.9000 2 13 182
1953035S08056 1953 9 SI MM NOT_NAMED 1953-02-05 09:00:00 TS -12.8748 54.9639 main 539 515 P____P___PP___ SH111953 -12.5925 54.8000 -1 -14.5078 55.9554 99 -12.5925 54.8000 TC 35 -12.6228 54.7959 2 12 186
1953035S08056 1953 9 SI MM NOT_NAMED 1953-02-05 12:00:00 TS -13.4585 54.8801 main 510 482 O____P___OP___ jtwc_sh SH111953 -13.1000 54.7000 -1 -14.8158 55.6107 99 -13.1000 54.7000 TC 35 -13.1575 54.6925 2 12 189
1953035S08056 1953 9 SI MM NOT_NAMED 1953-02-05 15:00:00 TS -14.0320 54.7650 main 482 447 P____P___PP___ SH111953 -13.6575 54.6000 -1 -15.1245 55.2671 99 -13.6575 54.6000 TC 35 -13.6884 54.5928 2 11 194
1953035S08056 1953 9 SI MM NOT_NAMED 1953-02-05 18:00:00 TS -14.5086 54.6064 main 447 431 O____P___OO___ jtwc_sh SH111953 -14.2000 54.5000 -1 -15.4345 54.9256 99 -14.2000 54.5000 TC 35 -14.2000 54.5000 2 10 199
1953035S08056 1953 9 SI MM NOT_NAMED 1953-02-05 21:00:00 TS -14.9390 54.4474 main 420 407 P____P___PP___ SH111953 -14.6650 54.3925 -1 -15.7464 54.5871 99 -14.6650 54.3925 TC 35 -14.6796 54.4176 2 9 199
1953035S08056 1953 9 SI MM NOT_NAMED 1953-02-06 00:00:00 TS -15.3496 54.2987 main 407 396 O____P___OP___ jtwc_sh SH111953 -15.1000 54.3000 -1 -16.0609 54.2527 99 -15.1000 54.3000 TC 35 -15.1374 54.3423 2 9 198
1953035S08056 1953 9 SI MM NOT_NAMED 1953-02-06 03:00:00 TS -15.7675 54.1697 main 398 388 P____P___PP___ SH111953 -15.5575 54.2424 -1 -16.3785 53.9233 99 -15.5575 54.2424 TC 50 -15.5765 54.2708 2 9 196
1953035S08056 1953 9 SI MM NOT_NAMED 1953-02-06 06:00:00 TS -16.1750 54.0500 reunion main 395 383 O____O___OO___ jtwc_sh SH111953 -16.0000 54.2000 -1 -16.7000 53.6000 99 9.90000 -16.0000 54.2000 TC 65 -16.0000 54.2000 4 8 196
1953035S08056 1953 9 SI MM NOT_NAMED 1953-02-06 09:00:00 TS -16.5658 53.9338 main 387 385 P____P___PP___ SH111953 -16.4075 54.1574 -1 -17.0258 53.2834 99 -16.4075 54.1574 TC 65 -16.4224 54.1369 4 8 196
1953035S08056 1953 9 SI MM NOT_NAMED 1953-02-06 12:00:00 TS -16.9464 53.8113 main 390 390 O____P___OP___ jtwc_sh SH111953 -16.8000 54.1000 -1 -17.3558 52.9730 99 -16.8000 54.1000 TC 65 -16.8299 54.0721 4 8 198
1953035S08056 1953 9 SI MM NOT_NAMED 1953-02-06 15:00:00 TS -17.3317 53.6736 main 399 394 P____P___PP___ SH111953 -17.2075 54.0150 -1 -17.6895 52.6682 99 -17.2075 54.0150 TC 65 -17.2224 53.9963 4 8 200
1953035S08056 1953 9 SI MM NOT_NAMED 1953-02-06 18:00:00 TS -17.7066 53.5170 main 399 390 O____P___OO___ jtwc_sh SH111953 -17.6000 53.9000 -1 -18.0265 52.3681 99 -17.6000 53.9000 TC 65 -17.6000 53.9000 4 8 203
1953035S08056 1953 9 SI MM NOT_NAMED 1953-02-06 21:00:00 TS -18.0605 53.3406 main 386 364 P____P___PP___ SH111953 -17.9575 53.7575 -1 -18.3665 52.0719 99 -17.9575 53.7575 TC 65 -17.9603 53.7755 4 8 206
1953035S08056 1953 9 SI MM NOT_NAMED 1953-02-07 00:00:00 TS -18.4041 53.1522 main 364 352 O____P___OP___ jtwc_sh SH111953 -18.3000 53.6000 -1 -18.7090 51.7791 99 -18.3000 53.6000 TC 65 -18.3075 53.6298 4 8 207
1953035S08056 1953 9 SI MM NOT_NAMED 1953-02-07 03:00:00 TS -18.7511 52.9644 main 344 335 P____P___PP___ SH111953 -18.6500 53.4499 -1 -19.0536 51.4887 99 -18.6500 53.4499 TC 65 -18.6509 53.4692 4 8 207
1953035S08056 1953 9 SI MM NOT_NAMED 1953-02-07 06:00:00 TS -19.1000 52.7750 reunion main 335 329 O____O___OO___ jtwc_sh SH111953 -19.0000 53.3000 -1 -19.4000 51.2000 99 9.90000 -19.0000 53.3000 TC 65 -19.0000 53.3000 4 8 207
1953035S08056 1953 9 SI MM NOT_NAMED 1953-02-07 09:00:00 TS -19.4481 52.5838 main 331 321 P____P___PP___ SH111953 -19.3425 53.1574 -1 -19.7437 50.8683 99 -19.3425 53.1574 TC 65 -19.3636 53.1520 4 8 208
1953035S08056 1953 9 SI MM NOT_NAMED 1953-02-07 12:00:00 TS -19.8060 52.3820 main 325 325 O____P___OP___ jtwc_sh SH111953 -19.7000 53.0000 -1 -20.0894 50.5340 99 -19.7000 53.0000 TC 65 -19.7347 52.9942 4 8 208
1953035S08056 1953 9 SI MM NOT_NAMED 1953-02-07 15:00:00 TS -20.1838 52.1622 main 327 327 P____P___PP___ SH111953 -20.0925 52.8149 -1 -20.4369 50.2046 99 -20.0925 52.8149 TC 65 -20.1135 52.8143 4 9 209
1953035S08056 1953 9 SI MM NOT_NAMED 1953-02-07 18:00:00 TS -20.5715 51.9219 main 330 318 O____P___OO___ jtwc_sh SH111953 -20.5000 52.6000 -1 -20.7862 49.8877 99 -20.5000 52.6000 TC 65 -20.5000 52.6000 4 9 211
1953035S08056 1953 9 SI MM NOT_NAMED 1953-02-07 21:00:00 TS -20.9574 51.6699 main 322 306 P____P___PP___ SH111953 -20.8999 52.3723 -1 -21.1371 49.5910 99 -20.8999 52.3723 TC 65 -20.8928 52.3439 4 9 212
1953035S08056 1953 9 SI MM NOT_NAMED 1953-02-08 00:00:00 TS -21.3455 51.3936 main 306 290 O____P___OP___ jtwc_sh SH111953 -21.3000 52.1000 -1 -21.4896 49.3222 99 -21.3000 52.1000 TC 65 -21.2925 52.0522 4 10 215
1953035S08056 1953 9 SI MM NOT_NAMED 1953-02-08 03:00:00 TS -21.7350 51.0884 main 290 266 P____P___PP___ SH111953 -21.7000 51.7649 -1 -21.8439 49.0892 99 -21.7000 51.7649 TC 65 -21.6959 51.7344 4 10 216
1953035S08056 1953 9 SI MM NOT_NAMED 1953-02-08 06:00:00 TS -22.1250 50.7750 reunion main 269 246 O____O___OO___ jtwc_sh SH111953 -22.1000 51.4000 -1 -22.2000 48.9000 99 9.90000 -22.1000 51.4000 TC 65 -22.1000 51.4000 4 10 216
1953035S08056 1953 9 SI MM NOT_NAMED 1953-02-08 09:00:00 TS -22.5178 50.4754 main 249 233 P____P___PP___ SH111953 -22.4999 51.0498 -1 -22.5836 48.7383 99 -22.4999 51.0498 TC 65 -22.4877 51.0637 4 10 215
1953035S08056 1953 9 SI MM NOT_NAMED 1953-02-08 12:00:00 TS -22.9125 50.1827 main 238 217 O____P___OP___ jtwc_sh SH111953 -22.9000 50.7000 -1 -22.9728 48.6166 99 -22.9000 50.7000 TC 65 -22.8774 50.7140 4 10 214
1953035S08056 1953 9 SI MM NOT_NAMED 1953-02-08 15:00:00 TS -23.3063 49.8978 main 219 196 P____P___PP___ SH111953 -23.2924 50.3497 -1 -23.3618 48.5344 99 -23.2924 50.3497 TC 65 -23.2783 50.3573 4 10 213
1953035S08056 1953 9 SI MM NOT_NAMED 1953-02-08 18:00:00 TS -23.7112 49.6228 main 196 185 O____P___OO___ jtwc_sh SH111953 -23.7000 50.0000 -1 -23.7450 48.4913 99 -23.7000 50.0000 TC 65 -23.7000 50.0000 4 10 211
1953035S08056 1953 9 SI MM NOT_NAMED 1953-02-08 21:00:00 TS -24.1298 49.3539 main 189 171 P____P___PP___ SH111953 -24.1349 49.6497 -1 -24.1162 48.4869 99 -24.1349 49.6497 TC 65 -24.1332 49.6294 4 10 209
1953035S08056 1953 9 SI MM NOT_NAMED 1953-02-09 00:00:00 TS -24.5650 49.0957 main 175 165 O____P___OP___ jtwc_sh SH111953 -24.6000 49.3000 -1 -24.4698 48.5205 99 -24.6000 49.3000 TC 65 -24.5902 49.2622 4 10 208
1953035S08056 1953 9 SI MM NOT_NAMED 1953-02-09 03:00:00 TS -25.0079 48.8475 main 161 157 P____P___PP___ SH111953 -25.0775 48.9422 -1 -24.7997 48.5917 99 -25.0775 48.9422 TC 65 -25.0770 48.9138 4 10 205
1953035S08056 1953 9 SI MM NOT_NAMED 1953-02-09 06:00:00 TS -25.4750 48.6250 reunion main 160 160 O____O___OO___ jtwc_sh SH111953 -25.6000 48.6000 -1 -25.1000 48.7000 99 9.90000 -25.6000 48.6000 TC 65 -25.6000 48.6000 4 10 202
1953035S08056 1953 9 SI MM NOT_NAMED 1953-02-09 09:00:00 TS -25.9761 48.4130 main 171 171 P____P___PP___ SH111953 -26.1850 48.2701 -1 -25.3664 48.8441 99 -26.1850 48.2701 TC 65 -26.1680 48.2677 4 11 198
1953035S08056 1953 9 SI MM NOT_NAMED 1953-02-09 12:00:00 TS -26.4928 48.2502 main 203 197 O____P___OP___ jtwc_sh SH111953 -26.8000 48.0000 -1 -25.6016 49.0202 99 -26.8000 48.0000 TC 65 -26.7698 47.9805 4 11 193
1953035S08056 1953 9 SI MM NOT_NAMED 1953-02-09 15:00:00 TS -26.9991 48.1455 main 238 238 P____P___PP___ SH111953 -27.3999 47.7901 -1 -25.8098 49.2240 99 -27.3999 47.7901 TC 65 -27.3867 47.7778 4 10 186
1953035S08056 1953 9 SI MM NOT_NAMED 1953-02-09 18:00:00 TS -27.4989 48.1377 main 287 287 O____P___OO___ jtwc_sh SH111953 -28.0000 47.7000 -1 -25.9955 49.4509 99 -28.0000 47.7000 TC 65 -28.0000 47.7000 4 10 176
1953035S08056 1953 9 SI MM NOT_NAMED 1953-02-09 21:00:00 TS -27.9932 48.2304 main 342 342 P____P___PP___ SH111953 -28.6073 47.7251 -1 -26.1630 49.6964 99 -28.6073 47.7251 TC 50 -28.5951 47.7750 4 10 165
1953035S08056 1953 9 SI MM NOT_NAMED 1953-02-10 00:00:00 TS -28.4725 48.4333 main 401 401 O____P___OP___ jtwc_sh SH111953 -29.2000 47.9000 -1 -26.3166 49.9562 99 -29.2000 47.9000 TC 35 -29.1734 47.9769 4 10 155
1953035S08056 1953 9 SI MM NOT_NAMED 1953-02-10 03:00:00 TS -28.9304 48.7286 main 453 453 P____P___PP___ SH111953 -29.7603 48.2116 -1 -26.4608 50.2255 99 -29.7603 48.2116 TC 35 -29.7399 48.2656 4 11 148
1953035S08056 1953 9 SI MM NOT_NAMED 1953-02-10 06:00:00 TS -29.3750 49.0750 reunion main 521 O____O___OO___ jtwc_sh SH111953 -30.3000 48.6000 -1 -26.6000 50.5000 99 9.90000 -30.3000 48.6000 TC 35 -30.3000 48.6000 2 11 146

IBTrACS Databaseについて

本データベースは、米国NOAAが公開する1842年以降の世界の熱帯低気圧のベストトラックデータアーカイブInternational Best Track Archive for Climate Stewardship (IBTrACS)を、ウェブで閲覧しやすい形式に変換したものです。

最終更新日:2021-12-08